Time;durP1;ratioP1;P1;durP2;ratioP2;P2;SDS_P1;SDS_P2;PMS_P1;PMS_P2;Temp;Humidity;BMP_temperature;BMP_pressure;BME280_temperature;BME280_humidity;BME280_pressure;Samples;Min_cycle;Max_cycle;Signal;HPM_P1;HPM_P2
2021/12/11 00:01:55;;;;;;;37.00;23.10;;;7.50;99.90;;;;;;5069657;28;20498;-69
2021/12/11 00:04:32;;;;;;;38.03;24.70;;;7.50;99.90;;;;;;5069595;28;20441;-69
2021/12/11 00:07:02;;;;;;;36.97;24.52;;;7.50;99.90;;;;;;5070789;28;20416;-69
2021/12/11 00:09:33;;;;;;;38.85;25.10;;;7.50;99.90;;;;;;5081296;28;20470;-69
2021/12/11 00:12:09;;;;;;;36.67;24.17;;;7.50;99.90;;;;;;5066828;28;20407;-69
2021/12/11 00:14:38;;;;;;;38.00;24.63;;;7.50;99.90;;;;;;5072159;28;20478;-69
2021/12/11 00:17:04;;;;;;;38.08;24.83;;;7.50;99.90;;;;;;5068646;28;20395;-69
2021/12/11 00:19:33;;;;;;;39.95;25.38;;;7.50;99.90;;;;;;5075948;28;20412;-68
2021/12/11 00:22:18;;;;;;;38.78;24.52;;;7.50;99.90;;;;;;5075036;28;20402;-68
2021/12/11 00:24:44;;;;;;;35.00;24.42;;;7.50;99.90;;;;;;5071804;28;20888;-68
2021/12/11 00:27:14;;;;;;;39.40;24.35;;;7.50;99.90;;;;;;5076413;28;20394;-69
2021/12/11 00:29:41;;;;;;;40.08;24.15;;;7.50;99.90;;;;;;5070994;28;20424;-69
2021/12/11 00:32:09;;;;;;;38.53;25.02;;;7.50;99.90;;;;;;5101785;27;20411;-70
2021/12/11 00:34:38;;;;;;;38.33;24.42;;;7.50;99.90;;;;;;5082107;28;20407;-69
2021/12/11 00:37:07;;;;;;;38.42;24.60;;;7.50;99.90;;;;;;5073509;28;20490;-68
2021/12/11 00:39:38;;;;;;;37.60;25.10;;;7.50;99.90;;;;;;5081312;28;21098;-68
2021/12/11 00:42:09;;;;;;;41.28;26.40;;;7.50;99.90;;;;;;5072814;28;20420;-68
2021/12/11 00:44:47;;;;;;;41.47;25.60;;;7.60;99.90;;;;;;5068182;28;20403;-69
2021/12/11 00:47:14;;;;;;;36.88;24.73;;;7.50;99.90;;;;;;5071475;28;20414;-69
2021/12/11 00:49:48;;;;;;;39.53;24.92;;;7.50;99.90;;;;;;5051797;28;20886;-69
2021/12/11 00:52:14;;;;;;;42.33;26.00;;;7.50;99.90;;;;;;5069582;28;20769;-69
2021/12/11 00:54:42;;;;;;;38.20;25.85;;;7.50;99.90;;;;;;5074023;28;20439;-69
2021/12/11 00:57:13;;;;;;;38.22;25.52;;;7.50;99.90;;;;;;5069144;28;20759;-69
2021/12/11 00:59:39;;;;;;;38.37;24.30;;;7.50;99.90;;;;;;5054725;28;20408;-68
2021/12/11 01:02:05;;;;;;;41.85;25.10;;;7.50;99.90;;;;;;5075345;28;20439;-69
2021/12/11 01:04:41;;;;;;;38.22;25.45;;;7.40;99.90;;;;;;5065270;28;20406;-68
2021/12/11 01:07:17;;;;;;;39.17;25.27;;;7.40;99.90;;;;;;5092104;28;20494;-69
2021/12/11 01:09:49;;;;;;;40.72;27.05;;;7.40;99.90;;;;;;5077648;28;20471;-69
2021/12/11 01:12:26;;;;;;;40.85;26.58;;;7.40;99.90;;;;;;5078541;28;20411;-68
2021/12/11 01:14:57;;;;;;;41.47;25.10;;;7.40;99.90;;;;;;5065987;28;21094;-70
2021/12/11 01:17:48;;;;;;;39.83;25.38;;;7.40;99.90;;;;;;5075958;28;20858;-69
2021/12/11 01:20:35;;;;;;;37.35;24.65;;;7.40;99.90;;;;;;5070218;28;20788;-68
2021/12/11 01:23:05;;;;;;;39.90;24.90;;;7.40;99.90;;;;;;5068012;28;20883;-70
2021/12/11 01:25:31;;;;;;;35.97;24.03;;;7.30;99.90;;;;;;5071702;28;20422;-69
2021/12/11 01:28:01;;;;;;;36.78;24.55;;;7.30;99.90;;;;;;5079888;28;20415;-68
2021/12/11 01:30:31;;;;;;;37.60;23.60;;;7.30;99.90;;;;;;5070446;28;20437;-69
2021/12/11 01:32:58;;;;;;;33.90;23.75;;;7.30;99.90;;;;;;5072308;28;20835;-69
2021/12/11 01:35:24;;;;;;;37.10;23.07;;;7.30;99.90;;;;;;5075238;28;20961;-68
2021/12/11 01:38:00;;;;;;;40.00;24.00;;;7.30;99.90;;;;;;5072599;28;20403;-68
2021/12/11 01:40:31;;;;;;;37.40;24.30;;;7.30;99.90;;;;;;5056893;28;20416;-70
2021/12/11 01:42:59;;;;;;;32.78;22.70;;;7.30;99.90;;;;;;5067477;28;20400;-69
2021/12/11 01:45:25;;;;;;;37.92;23.15;;;7.30;99.90;;;;;;5066779;28;20411;-68
2021/12/11 01:47:50;;;;;;;36.10;23.77;;;7.20;99.90;;;;;;5066977;28;20412;-69
2021/12/11 01:50:28;;;;;;;33.92;22.90;;;7.20;99.90;;;;;;5068209;28;20424;-70
2021/12/11 01:53:06;;;;;;;36.50;23.27;;;7.20;99.90;;;;;;5075342;28;20451;-69
2021/12/11 01:55:36;;;;;;;35.25;23.02;;;7.20;99.90;;;;;;5057965;28;21105;-68
2021/12/11 01:58:05;;;;;;;39.33;22.65;;;7.20;99.90;;;;;;5076921;28;20510;-69
2021/12/11 02:00:45;;;;;;;37.90;23.30;;;7.20;99.90;;;;;;5069708;28;20414;-68
2021/12/11 02:03:17;;;;;;;34.83;22.90;;;7.20;99.90;;;;;;5072281;28;20423;-68
2021/12/11 02:05:43;;;;;;;34.63;23.98;;;7.10;99.90;;;;;;5073785;28;20497;-68
2021/12/11 02:08:13;;;;;;;38.15;23.52;;;7.10;99.90;;;;;;5071452;28;20498;-68
2021/12/11 02:10:53;;;;;;;40.65;24.50;;;7.00;99.90;;;;;;5071433;28;20414;-68
2021/12/11 02:13:35;;;;;;;41.57;25.97;;;7.00;99.90;;;;;;5077619;28;20401;-68
2021/12/11 02:16:01;;;;;;;40.20;25.03;;;7.00;99.90;;;;;;5075648;28;20413;-69
2021/12/11 02:18:35;;;;;;;38.07;25.30;;;7.00;99.90;;;;;;5075304;28;20436;-68
2021/12/11 02:21:19;;;;;;;40.22;25.45;;;7.00;99.90;;;;;;5054497;28;20940;-68
2021/12/11 02:23:52;;;;;;;39.30;26.15;;;7.00;99.90;;;;;;5049531;28;20420;-69
2021/12/11 02:26:18;;;;;;;38.97;25.38;;;6.90;99.90;;;;;;5070568;28;20428;-69
2021/12/11 02:28:53;;;;;;;43.90;25.40;;;7.00;99.90;;;;;;5060627;28;20422;-68
2021/12/11 02:31:26;;;;;;;41.80;24.75;;;6.90;99.90;;;;;;5071073;28;20406;-69
2021/12/11 02:34:14;;;;;;;37.95;25.67;;;6.90;99.90;;;;;;5075916;28;20568;-69
2021/12/11 02:36:49;;;;;;;46.67;26.00;;;6.90;99.90;;;;;;5077359;28;20417;-69
2021/12/11 02:39:27;;;;;;;44.07;25.53;;;6.90;99.90;;;;;;5074133;28;20439;-69
2021/12/11 02:42:13;;;;;;;39.75;25.17;;;6.90;99.90;;;;;;5064373;28;20434;-68
2021/12/11 02:44:45;;;;;;;39.22;25.45;;;6.90;99.90;;;;;;5062567;28;20409;-67
2021/12/11 02:47:27;;;;;;;41.97;25.10;;;6.90;99.90;;;;;;5062878;28;20768;-69
2021/12/11 02:50:09;;;;;;;39.85;25.55;;;6.80;99.90;;;;;;5058994;28;20440;-69
2021/12/11 02:52:40;;;;;;;42.20;25.33;;;6.80;99.90;;;;;;5062759;28;20442;-68
2021/12/11 02:55:32;;;;;;;44.42;26.70;;;6.90;99.90;;;;;;5056390;28;20436;-68
2021/12/11 02:58:24;;;;;;;45.65;26.95;;;6.80;99.90;;;;;;5055859;28;20425;-69
2021/12/11 03:00:58;;;;;;;44.58;27.60;;;6.80;99.90;;;;;;5061287;28;20488;-69
2021/12/11 03:03:30;;;;;;;43.88;26.88;;;6.80;99.90;;;;;;5066070;28;20807;-68
2021/12/11 03:06:06;;;;;;;43.75;27.13;;;6.80;99.90;;;;;;5060862;28;20807;-69
2021/12/11 03:08:32;;;;;;;45.60;27.83;;;6.80;99.90;;;;;;5046549;28;20506;-70
2021/12/11 03:11:03;;;;;;;47.17;28.02;;;6.80;99.90;;;;;;5061091;28;20418;-69
2021/12/11 03:13:31;;;;;;;46.13;26.67;;;6.80;99.90;;;;;;5062823;28;20583;-69
2021/12/11 03:15:58;;;;;;;53.83;28.97;;;6.80;99.90;;;;;;5061720;28;20441;-69
2021/12/11 03:18:24;;;;;;;50.87;28.10;;;6.70;99.90;;;;;;5061648;28;20496;-69
2021/12/11 03:20:51;;;;;;;45.57;27.73;;;6.70;99.90;;;;;;5056043;28;20467;-68
2021/12/11 03:23:17;;;;;;;50.20;27.92;;;6.70;99.90;;;;;;5063304;28;21148;-68
2021/12/11 03:25:44;;;;;;;50.33;27.80;;;6.70;99.90;;;;;;5062824;28;20434;-70
2021/12/11 03:28:10;;;;;;;49.30;27.30;;;6.70;99.90;;;;;;5043620;28;20428;-68
2021/12/11 03:30:46;;;;;;;50.28;28.25;;;6.70;99.90;;;;;;5057478;28;20404;-68
2021/12/11 03:33:15;;;;;;;51.20;28.05;;;6.70;99.90;;;;;;5061432;28;20408;-68
2021/12/11 03:35:43;;;;;;;50.13;27.42;;;6.70;99.90;;;;;;5058688;28;20450;-68
2021/12/11 03:38:10;;;;;;;52.72;28.63;;;6.70;99.90;;;;;;5041833;28;20461;-69
2021/12/11 03:40:38;;;;;;;49.55;28.13;;;6.70;99.90;;;;;;5067006;28;20425;-69
2021/12/11 03:43:07;;;;;;;53.25;28.98;;;6.70;99.90;;;;;;5061616;28;20451;-69
2021/12/11 03:45:35;;;;;;;51.83;28.60;;;6.70;99.90;;;;;;5069204;28;20976;-68
2021/12/11 03:48:19;;;;;;;55.80;27.90;;;6.70;99.90;;;;;;5081748;28;20429;-69
2021/12/11 03:50:46;;;;;;;51.92;28.42;;;6.70;99.90;;;;;;5069981;28;20917;-69
2021/12/11 03:53:12;;;;;;;53.53;28.88;;;6.70;99.90;;;;;;5083931;28;20405;-69
2021/12/11 03:55:49;;;;;;;49.08;27.98;;;6.70;99.90;;;;;;5066346;28;20461;-68
2021/12/11 03:58:15;;;;;;;47.10;27.35;;;6.70;99.90;;;;;;5074258;28;20761;-69
2021/12/11 04:00:51;;;;;;;52.67;25.92;;;6.70;99.90;;;;;;5072457;28;20423;-68
2021/12/11 04:03:20;;;;;;;46.10;24.48;;;6.80;99.90;;;;;;5084305;28;20477;-68
2021/12/11 04:05:47;;;;;;;44.63;23.40;;;6.80;99.90;;;;;;5079507;28;20418;-69
2021/12/11 04:08:17;;;;;;;48.20;24.38;;;6.90;99.90;;;;;;5078852;28;20419;-69
2021/12/11 04:10:43;;;;;;;46.38;23.42;;;7.00;99.90;;;;;;5078301;28;20413;-69
2021/12/11 04:13:11;;;;;;;46.58;23.67;;;7.00;99.90;;;;;;5077012;28;20482;-69
2021/12/11 04:15:39;;;;;;;46.22;22.20;;;7.10;99.90;;;;;;5074290;28;20400;-69
2021/12/11 04:18:05;;;;;;;44.05;20.25;;;7.10;99.90;;;;;;5079909;28;20414;-68
2021/12/11 04:20:33;;;;;;;36.63;15.52;;;7.10;99.90;;;;;;5072370;28;20435;-68
2021/12/11 04:22:59;;;;;;;33.58;12.40;;;7.20;99.90;;;;;;5078882;28;20398;-68
2021/12/11 04:25:26;;;;;;;30.63;7.40;;;7.30;99.90;;;;;;5075785;28;20766;-69
2021/12/11 04:27:56;;;;;;;23.08;3.92;;;7.30;99.90;;;;;;5080087;28;20831;-69
2021/12/11 04:30:25;;;;;;;24.17;3.70;;;7.40;99.90;;;;;;5080657;28;20405;-69
2021/12/11 04:32:53;;;;;;;24.33;2.72;;;7.50;99.90;;;;;;5080746;28;20870;-69
2021/12/11 04:35:21;;;;;;;20.70;3.00;;;7.60;99.90;;;;;;5071559;28;20526;-69
2021/12/11 04:37:48;;;;;;;17.85;2.60;;;7.70;99.90;;;;;;5085223;28;20405;-69
2021/12/11 04:40:18;;;;;;;13.80;2.58;;;7.90;99.90;;;;;;5071434;28;20431;-69
2021/12/11 04:42:59;;;;;;;13.17;2.70;;;7.90;99.90;;;;;;5069426;28;20486;-70
2021/12/11 04:45:33;;;;;;;11.07;2.63;;;8.00;99.90;;;;;;5063216;28;20906;-68
2021/12/11 04:48:11;;;;;;;12.35;2.75;;;8.00;99.90;;;;;;5063258;28;20420;-68
2021/12/11 04:50:59;;;;;;;11.07;2.72;;;8.00;99.90;;;;;;5061866;28;20906;-68
2021/12/11 04:58:48;;;;;;;13.75;2.72;;;8.10;99.90;;;;;;5065799;28;20799;-69
2021/12/11 05:06:48;;;;;;;10.25;2.20;;;8.10;99.90;;;;;;5060483;28;20418;-68
2021/12/11 05:09:24;;;;;;;10.85;2.60;;;8.10;99.90;;;;;;5063440;28;20557;-68
2021/12/11 05:12:12;;;;;;;15.38;2.50;;;8.00;99.90;;;;;;5045343;28;20496;-68
2021/12/11 05:14:38;;;;;;;14.33;2.50;;;8.10;99.90;;;;;;5063087;28;20423;-68
2021/12/11 05:17:05;;;;;;;10.98;2.28;;;8.00;99.90;;;;;;5066298;28;20421;-69
2021/12/11 05:19:31;;;;;;;14.10;2.70;;;8.00;99.90;;;;;;5048802;28;20468;-68
2021/12/11 05:21:57;;;;;;;11.98;2.28;;;8.00;99.90;;;;;;5039919;28;20434;-68
2021/12/11 05:24:22;;;;;;;10.15;2.45;;;8.00;99.90;;;;;;5065297;28;20439;-68
2021/12/11 05:26:48;;;;;;;16.25;2.85;;;8.00;99.90;;;;;;5060011;28;20497;-68
2021/12/11 05:29:14;;;;;;;8.07;2.40;;;8.00;99.90;;;;;;5062293;28;20471;-69
2021/12/11 05:31:40;;;;;;;12.33;2.43;;;7.90;99.90;;;;;;5039953;28;20490;-68
2021/12/11 05:34:06;;;;;;;12.27;2.78;;;7.90;99.90;;;;;;5059076;28;20397;-69
2021/12/11 05:36:33;;;;;;;11.77;2.50;;;7.90;99.90;;;;;;5055414;28;20489;-69
2021/12/11 05:39:01;;;;;;;11.40;2.65;;;7.90;99.90;;;;;;5058813;28;20903;-68
2021/12/11 05:41:27;;;;;;;13.88;3.40;;;7.90;99.90;;;;;;5066329;28;20445;-68
2021/12/11 05:43:54;;;;;;;12.70;4.03;;;7.90;99.90;;;;;;5053005;28;20414;-68
2021/12/11 05:46:19;;;;;;;17.75;5.90;;;7.80;99.90;;;;;;5060537;28;20413;-68
2021/12/11 05:48:48;;;;;;;23.17;7.10;;;7.80;99.90;;;;;;5070757;28;20784;-69
2021/12/11 05:51:19;;;;;;;31.85;8.98;;;7.80;99.90;;;;;;5070033;28;20772;-68
2021/12/11 05:53:46;;;;;;;28.77;8.80;;;7.80;99.90;;;;;;5067143;28;20454;-68
2021/12/11 05:56:13;;;;;;;27.37;9.57;;;7.80;99.90;;;;;;5077188;28;20417;-68
2021/12/11 05:58:47;;;;;;;32.10;10.30;;;7.70;99.90;;;;;;5074026;28;20442;-69
2021/12/11 06:01:21;;;;;;;38.55;14.00;;;7.80;99.90;;;;;;5065071;28;20443;-69
2021/12/11 06:03:48;;;;;;;42.40;18.63;;;7.70;99.90;;;;;;5068580;28;20792;-68
2021/12/11 06:06:14;;;;;;;48.57;21.20;;;7.70;99.90;;;;;;5065719;28;20465;-68
2021/12/11 06:08:40;;;;;;;45.08;20.98;;;7.70;99.90;;;;;;5079189;28;20419;-71
2021/12/11 06:11:07;;;;;;;47.67;23.73;;;7.60;99.90;;;;;;5064611;28;20411;-69
2021/12/11 06:13:33;;;;;;;49.60;24.52;;;7.60;99.90;;;;;;5072319;28;20762;-70
2021/12/11 06:16:00;;;;;;;58.22;29.00;;;7.60;99.90;;;;;;5069225;28;20426;-69
2021/12/11 06:18:26;;;;;;;56.95;28.25;;;7.50;99.90;;;;;;5070728;28;20462;-69
2021/12/11 06:20:52;;;;;;;56.27;29.00;;;7.50;99.90;;;;;;5064517;28;20416;-68
2021/12/11 06:23:18;;;;;;;53.45;29.08;;;7.40;99.90;;;;;;5072102;28;20420;-70
2021/12/11 06:25:45;;;;;;;56.05;29.95;;;7.40;99.90;;;;;;5066224;28;20802;-70
2021/12/11 06:28:11;;;;;;;72.70;29.85;;;7.40;99.90;;;;;;5068473;28;20434;-69
2021/12/11 06:30:38;;;;;;;60.00;30.23;;;7.40;99.90;;;;;;5071203;28;20408;-68
2021/12/11 06:33:04;;;;;;;57.22;30.92;;;7.40;99.90;;;;;;5054754;28;20481;-69
2021/12/11 06:35:39;;;;;;;56.88;30.58;;;7.30;99.90;;;;;;5075952;28;20408;-70
2021/12/11 06:38:08;;;;;;;60.57;31.10;;;7.30;99.90;;;;;;5073294;28;20450;-70
2021/12/11 06:40:34;;;;;;;60.63;30.70;;;7.30;99.90;;;;;;5068573;28;20427;-69
2021/12/11 06:43:00;;;;;;;58.67;30.77;;;7.30;99.90;;;;;;5065241;28;20806;-69
2021/12/11 06:45:27;;;;;;;59.83;31.30;;;7.20;99.90;;;;;;5065242;28;20455;-69
2021/12/11 06:47:54;;;;;;;56.87;31.43;;;7.20;99.90;;;;;;5075818;28;20434;-68
2021/12/11 06:50:20;;;;;;;62.38;32.55;;;7.10;99.90;;;;;;5075884;28;20411;-69
2021/12/11 06:52:48;;;;;;;62.17;32.40;;;7.10;99.90;;;;;;5057774;28;20415;-69
2021/12/11 06:55:17;;;;;;;65.20;33.63;;;7.10;99.90;;;;;;5075213;28;20499;-68
2021/12/11 06:57:43;;;;;;;66.30;33.97;;;7.10;99.90;;;;;;5065641;28;20470;-69
2021/12/11 07:00:10;;;;;;;67.28;34.55;;;7.10;99.90;;;;;;5064188;28;20420;-68
2021/12/11 07:02:36;;;;;;;73.00;34.50;;;7.10;99.90;;;;;;5075739;28;20467;-69
2021/12/11 07:05:04;;;;;;;77.13;39.17;;;7.10;99.90;;;;;;5068989;28;20415;-68
2021/12/11 07:07:33;;;;;;;74.25;36.83;;;7.10;99.90;;;;;;5076584;28;20817;-72
2021/12/11 07:10:01;;;;;;;79.57;37.05;;;7.10;99.90;;;;;;5073889;28;20473;-69
2021/12/11 07:12:27;;;;;;;75.78;37.47;;;7.20;99.90;;;;;;5066548;28;20422;-70
2021/12/11 07:14:52;;;;;;;74.07;37.03;;;7.20;99.90;;;;;;5066020;28;20979;-70
2021/12/11 07:17:20;;;;;;;71.67;35.57;;;7.20;99.90;;;;;;5068624;28;20741;-71
2021/12/11 07:19:47;;;;;;;75.80;37.42;;;7.20;99.90;;;;;;5063806;28;20435;-70
2021/12/11 07:22:13;;;;;;;76.93;37.50;;;7.10;99.90;;;;;;5071487;28;20444;-71
2021/12/11 07:24:44;;;;;;;76.78;36.75;;;7.10;99.90;;;;;;5075761;28;20412;-70
2021/12/11 07:27:10;;;;;;;78.00;37.80;;;7.10;99.90;;;;;;5063938;28;20461;-70
2021/12/11 07:29:37;;;;;;;78.80;37.55;;;7.10;99.90;;;;;;5063944;28;20876;-70
2021/12/11 07:32:05;;;;;;;87.15;39.03;;;7.10;99.90;;;;;;5066884;28;20410;-70
2021/12/11 07:34:31;;;;;;;84.13;38.20;;;7.00;99.90;;;;;;5065834;28;20411;-71
2021/12/11 07:36:58;;;;;;;86.22;39.80;;;7.00;99.90;;;;;;5051306;28;20905;-70
2021/12/11 07:39:24;;;;;;;86.95;39.83;;;7.00;99.90;;;;;;5052615;28;20399;-68
2021/12/11 07:41:52;;;;;;;85.07;38.92;;;7.00;99.90;;;;;;5078422;28;20427;-70
2021/12/11 07:44:20;;;;;;;87.30;40.47;;;6.90;99.90;;;;;;5066619;28;20916;-70
2021/12/11 07:46:46;;;;;;;91.47;40.37;;;6.90;99.90;;;;;;5072401;28;20429;-71
2021/12/11 07:49:12;;;;;;;93.95;40.35;;;6.90;99.90;;;;;;5069946;28;20407;-70
2021/12/11 07:51:39;;;;;;;95.37;42.13;;;6.90;99.90;;;;;;5068950;28;20426;-70
2021/12/11 07:54:06;;;;;;;94.78;41.08;;;6.90;99.90;;;;;;5068737;28;20461;-70
2021/12/11 07:56:32;;;;;;;93.20;42.40;;;6.90;99.90;;;;;;5068828;28;20446;-70
2021/12/11 07:59:00;;;;;;;89.88;41.50;;;6.90;99.90;;;;;;5075094;28;20872;-70
2021/12/11 08:01:32;;;;;;;94.93;41.33;;;6.90;99.90;;;;;;5069867;28;20429;-70
2021/12/11 08:04:00;;;;;;;83.80;39.10;;;6.90;99.90;;;;;;5064396;28;20425;-70
2021/12/11 08:06:27;;;;;;;93.60;41.63;;;6.90;99.90;;;;;;5077361;28;20414;-70
2021/12/11 08:08:53;;;;;;;99.78;45.00;;;6.90;99.90;;;;;;5040983;28;20411;-70
2021/12/11 08:11:19;;;;;;;103.43;44.45;;;6.90;99.90;;;;;;5070975;28;20412;-69
2021/12/11 08:13:49;;;;;;;97.68;43.65;;;6.90;99.90;;;;;;5072213;28;20419;-69
2021/12/11 08:16:21;;;;;;;95.80;42.35;;;6.90;99.90;;;;;;5076625;28;20415;-69
2021/12/11 08:18:47;;;;;;;103.30;43.95;;;6.90;99.90;;;;;;5073102;28;20764;-70
2021/12/11 08:21:13;;;;;;;85.60;42.78;;;6.90;99.90;;;;;;5067935;28;20419;-69
2021/12/11 08:23:44;;;;;;;94.10;43.63;;;6.90;99.90;;;;;;5071547;28;20417;-70
2021/12/11 08:26:14;;;;;;;98.85;44.95;;;6.80;99.90;;;;;;5066809;28;20464;-71
2021/12/11 08:28:40;;;;;;;87.28;42.72;;;6.80;99.90;;;;;;5066538;28;20818;-72
2021/12/11 08:31:06;;;;;;;88.60;41.47;;;6.90;99.90;;;;;;5073203;28;20493;-70
2021/12/11 08:33:31;;;;;;;85.88;42.05;;;6.90;99.90;;;;;;5067432;28;20916;-70
2021/12/11 08:35:57;;;;;;;95.45;44.67;;;6.90;99.90;;;;;;5074962;28;20508;-72
2021/12/11 08:38:23;;;;;;;89.47;43.30;;;6.90;99.90;;;;;;5076685;28;20449;-70
2021/12/11 08:40:54;;;;;;;82.85;41.38;;;7.00;99.90;;;;;;5065736;28;20431;-71
2021/12/11 08:43:23;;;;;;;87.70;41.22;;;7.00;99.90;;;;;;5057120;28;20436;-69
2021/12/11 08:46:03;;;;;;;78.60;39.50;;;7.10;99.90;;;;;;5066178;28;20810;-70
2021/12/11 08:48:29;;;;;;;72.10;38.30;;;7.20;99.90;;;;;;5069008;28;20473;-69
2021/12/11 08:51:01;;;;;;;70.00;37.50;;;7.30;99.90;;;;;;5067205;28;22642;-70
2021/12/11 08:53:27;;;;;;;71.90;37.83;;;7.30;99.90;;;;;;5071954;28;20416;-70
2021/12/11 08:55:54;;;;;;;70.85;37.38;;;7.40;99.90;;;;;;5075138;28;20420;-70
2021/12/11 08:58:22;;;;;;;66.55;35.45;;;7.50;99.90;;;;;;5052395;28;20503;-69
2021/12/11 09:00:50;;;;;;;67.60;35.35;;;7.60;99.90;;;;;;5069548;28;20896;-70
2021/12/11 09:03:36;;;;;;;66.95;35.97;;;7.60;99.90;;;;;;5065718;28;20518;-70
2021/12/11 09:06:08;;;;;;;63.93;34.80;;;7.70;99.90;;;;;;5046977;28;20447;-70
2021/12/11 09:08:48;;;;;;;61.42;33.70;;;7.80;99.90;;;;;;5050875;28;20860;-69
2021/12/11 09:11:24;;;;;;;57.72;32.13;;;7.90;99.90;;;;;;5065258;28;20423;-70
2021/12/11 09:13:57;;;;;;;50.15;29.90;;;8.30;99.90;;;;;;5065102;28;20415;-70
2021/12/11 09:16:34;;;;;;;45.28;27.48;;;8.90;99.90;;;;;;5066496;28;20772;-70
2021/12/11 09:19:12;;;;;;;40.20;25.95;;;9.90;99.90;;;;;;5068721;28;20915;-71
2021/12/11 09:21:41;;;;;;;44.00;26.70;;;10.80;99.90;;;;;;5061730;28;20417;-70
2021/12/11 09:24:10;;;;;;;46.35;27.65;;;11.00;99.50;;;;;;5069038;28;20411;-71
2021/12/11 09:27:01;;;;;;;44.80;25.95;;;11.00;99.20;;;;;;5050030;28;20498;-70
2021/12/11 09:29:32;;;;;;;40.17;24.63;;;11.30;99.60;;;;;;5074814;28;20469;-71
2021/12/11 09:32:32;;;;;;;41.40;24.23;;;11.90;98.90;;;;;;5067797;28;20415;-71
2021/12/11 09:35:08;;;;;;;34.97;22.57;;;12.70;97.00;;;;;;5069678;28;20426;-70
2021/12/11 09:37:35;;;;;;;34.50;21.80;;;13.70;95.30;;;;;;5066694;28;20502;-71
2021/12/11 09:40:09;;;;;;;31.85;21.20;;;14.60;93.10;;;;;;5066076;28;20411;-68
2021/12/11 09:42:35;;;;;;;32.88;20.83;;;15.50;90.80;;;;;;5054681;28;20581;-68
2021/12/11 09:45:09;;;;;;;29.70;20.00;;;16.20;86.10;;;;;;5043345;28;20415;-67
2021/12/11 09:47:41;;;;;;;30.48;18.75;;;16.60;81.90;;;;;;5064012;28;20415;-68
2021/12/11 09:50:19;;;;;;;31.53;18.90;;;16.90;79.30;;;;;;5043278;28;20420;-67
2021/12/11 09:52:46;;;;;;;;;;;17.20;76.00;;;;;;5046327;28;19959;-70
2021/12/11 09:55:15;;;;;;;;;;;17.40;73.40;;;;;;5063032;28;19999;-70
2021/12/11 09:57:42;;;;;;;;;;;17.50;72.80;;;;;;5045403;28;19946;-70
2021/12/11 10:00:15;;;;;;;37.78;19.13;;;17.10;71.80;;;;;;5060983;28;20425;-70
2021/12/11 10:02:41;;;;;;;38.17;19.45;;;16.50;74.10;;;;;;5061681;28;20524;-71
2021/12/11 10:05:37;;;;;;;37.22;19.20;;;15.80;77.50;;;;;;5042691;28;20443;-71
2021/12/11 10:08:29;;;;;;;41.67;19.20;;;15.00;80.90;;;;;;5044244;28;20449;-71
2021/12/11 10:11:07;;;;;;;40.47;19.48;;;14.20;84.70;;;;;;5058052;28;20400;-70
2021/12/11 10:13:38;;;;;;;37.90;19.55;;;13.40;88.80;;;;;;5062764;28;20476;-70
2021/12/11 10:16:05;;;;;;;38.22;18.27;;;12.90;90.80;;;;;;5057538;28;20420;-70
2021/12/11 10:18:34;;;;;;;39.47;18.40;;;12.50;92.20;;;;;;5062096;28;20418;-70
2021/12/11 10:21:05;;;;;;;35.83;17.40;;;12.20;93.00;;;;;;5053287;28;20764;-71
2021/12/11 10:23:34;;;;;;;38.15;17.38;;;11.90;93.70;;;;;;5056153;28;22209;-72
2021/12/11 10:26:01;;;;;;;40.22;20.60;;;11.70;94.60;;;;;;5051771;28;20422;-70
2021/12/11 10:28:29;;;;;;;40.27;19.40;;;11.50;95.10;;;;;;5066638;28;20411;-71
2021/12/11 10:31:02;;;;;;;34.63;17.10;;;11.40;95.90;;;;;;5058201;28;20400;-71
2021/12/11 10:33:31;;;;;;;28.08;13.10;;;11.20;96.30;;;;;;5064038;28;20190;-71
2021/12/11 10:36:00;;;;;;;33.80;13.07;;;10.70;96.90;;;;;;5060178;28;20214;-69
2021/12/11 10:38:27;;;;;;;27.52;13.18;;;10.30;97.60;;;;;;5026082;28;20565;-70
2021/12/11 10:40:56;;;;;;;22.48;11.70;;;10.00;98.20;;;;;;5059007;28;20222;-71
2021/12/11 10:43:42;;;;;;;27.08;12.35;;;9.80;98.70;;;;;;5067064;28;20190;-70
2021/12/11 10:46:11;;;;;;;24.98;12.13;;;9.70;99.10;;;;;;5100264;27;20186;-69
2021/12/11 10:48:37;;;;;;;45.17;15.75;;;9.60;99.60;;;;;;5065454;28;20576;-69
2021/12/11 10:51:15;;;;;;;29.85;11.68;;;9.60;99.90;;;;;;5066448;28;20186;-71
2021/12/11 10:53:46;;;;;;;35.95;12.18;;;9.70;99.90;;;;;;5066930;28;20244;-70
2021/12/11 10:56:14;;;;;;;27.23;11.45;;;9.70;99.90;;;;;;5065486;28;20209;-69
2021/12/11 10:58:45;;;;;;;29.50;9.80;;;9.80;99.90;;;;;;5067301;28;20194;-70
2021/12/11 11:01:28;;;;;;;24.52;9.68;;;9.80;99.90;;;;;;5066329;28;21042;-70
2021/12/11 11:03:58;;;;;;;20.45;8.70;;;9.90;99.90;;;;;;5066469;28;20194;-69
2021/12/11 11:06:25;;;;;;;25.00;7.93;;;9.90;99.90;;;;;;5065486;28;20197;-71
2021/12/11 11:08:51;;;;;;;28.27;8.23;;;10.00;99.90;;;;;;5066257;28;20225;-70
2021/12/11 11:11:20;;;;;;;23.00;7.45;;;10.00;99.90;;;;;;5064779;28;20210;-70
2021/12/11 11:13:46;;;;;;;19.98;7.07;;;10.10;99.90;;;;;;5065757;28;20543;-70
2021/12/11 11:16:14;;;;;;;26.40;7.80;;;10.10;99.90;;;;;;5066294;28;20182;-70
2021/12/11 11:18:40;;;;;;;18.98;6.13;;;10.20;99.90;;;;;;5064647;28;20269;-71
2021/12/11 11:21:17;;;;;;;21.30;7.47;;;10.20;99.90;;;;;;5064725;28;20594;-71
2021/12/11 11:23:46;;;;;;;17.40;6.38;;;10.30;99.90;;;;;;5062373;28;20449;-70
2021/12/11 11:26:15;;;;;;;15.57;4.68;;;11.30;99.80;;;;;;5064239;28;20916;-69
2021/12/11 11:28:41;;;;;;;21.17;5.10;;;12.00;97.80;;;;;;5066537;28;20500;-70
2021/12/11 11:31:11;;;;;;;19.63;4.70;;;12.30;97.10;;;;;;5064710;28;20450;-70
2021/12/11 11:33:39;;;;;;;21.10;5.78;;;12.40;96.50;;;;;;5064755;28;20737;-69
2021/12/11 11:36:08;;;;;;;23.75;5.40;;;12.50;96.30;;;;;;5064027;28;20411;-71
2021/12/11 11:38:37;;;;;;;18.50;5.55;;;12.50;95.90;;;;;;5066621;28;20411;-69
2021/12/11 11:41:10;;;;;;;16.80;5.18;;;12.40;96.20;;;;;;5058523;28;20423;-70
2021/12/11 11:43:37;;;;;;;24.73;5.60;;;12.40;96.40;;;;;;5055002;28;20422;-69
2021/12/11 11:46:03;;;;;;;18.48;4.53;;;12.40;96.30;;;;;;5057755;28;20421;-69
2021/12/11 11:48:32;;;;;;;16.15;4.20;;;12.30;96.20;;;;;;5046147;28;20422;-70
2021/12/11 11:51:01;;;;;;;15.07;3.25;;;12.30;96.30;;;;;;5058587;28;20408;-70
2021/12/11 11:53:27;;;;;;;13.40;2.90;;;12.20;96.10;;;;;;5054919;28;20470;-69
2021/12/11 11:55:58;;;;;;;8.35;2.13;;;12.10;95.40;;;;;;5061257;28;20415;-68
2021/12/11 11:58:27;;;;;;;13.60;2.38;;;12.10;95.10;;;;;;5040051;28;20411;-69
2021/12/11 12:00:57;;;;;;;8.95;1.85;;;12.00;94.60;;;;;;5057868;28;20427;-68
2021/12/11 12:03:26;;;;;;;8.38;1.80;;;11.90;94.00;;;;;;5062411;28;20425;-69
2021/12/11 12:05:57;;;;;;;8.27;1.53;;;11.80;93.40;;;;;;5060215;28;20775;-70
2021/12/11 12:08:23;;;;;;;12.00;1.95;;;11.70;92.70;;;;;;5057986;28;20423;-69
2021/12/11 12:10:51;;;;;;;11.97;1.97;;;11.70;92.50;;;;;;5053814;28;20921;-69
2021/12/11 12:13:19;;;;;;;9.25;1.70;;;11.60;92.70;;;;;;5062047;28;20880;-70
2021/12/11 12:15:49;;;;;;;11.55;2.10;;;11.60;92.70;;;;;;5055386;28;20418;-71
2021/12/11 12:18:17;;;;;;;11.18;1.80;;;11.60;92.30;;;;;;5057615;28;20802;-70
2021/12/11 12:20:44;;;;;;;10.82;1.92;;;11.50;92.50;;;;;;5046675;28;20416;-72
2021/12/11 12:23:11;;;;;;;8.67;1.53;;;11.50;92.90;;;;;;5054776;28;20503;-70
2021/12/11 12:25:42;;;;;;;8.77;1.55;;;11.50;93.10;;;;;;5040063;28;20421;-70
2021/12/11 12:28:07;;;;;;;13.25;2.13;;;11.50;93.80;;;;;;5042465;28;20419;-69
2021/12/11 12:30:43;;;;;;;10.95;2.42;;;11.40;94.10;;;;;;5042911;28;20428;-70
2021/12/11 12:33:11;;;;;;;15.00;2.40;;;11.40;94.30;;;;;;5043701;28;20440;-70
2021/12/11 12:35:38;;;;;;;16.25;2.35;;;11.40;95.00;;;;;;5059188;28;20519;-69
2021/12/11 12:38:06;;;;;;;10.38;2.17;;;11.40;95.60;;;;;;5042645;28;20423;-70
2021/12/11 12:40:45;;;;;;;12.50;2.70;;;11.50;95.80;;;;;;5056744;28;20438;-70
2021/12/11 12:43:21;;;;;;;12.02;2.05;;;11.60;95.90;;;;;;5061196;28;20420;-69
2021/12/11 12:45:50;;;;;;;14.00;2.47;;;11.70;96.00;;;;;;5058934;28;20419;-70
2021/12/11 12:48:22;;;;;;;17.40;2.97;;;11.80;96.10;;;;;;5064674;28;20485;-68
2021/12/11 12:50:55;;;;;;;22.55;3.15;;;12.00;95.90;;;;;;5059000;28;20425;-71
2021/12/11 12:53:23;;;;;;;15.95;2.80;;;12.10;95.90;;;;;;5047934;28;20412;-68
2021/12/11 12:55:53;;;;;;;15.77;2.83;;;12.30;96.10;;;;;;5057782;28;20419;-69
2021/12/11 12:58:28;;;;;;;16.48;2.85;;;12.60;95.80;;;;;;5062153;28;21318;-69
2021/12/11 13:00:59;;;;;;;19.63;3.00;;;12.80;95.00;;;;;;5061938;28;20412;-70
2021/12/11 13:03:28;;;;;;;12.32;2.83;;;12.80;94.50;;;;;;5063540;28;21826;-71
2021/12/11 13:05:58;;;;;;;12.77;2.85;;;12.90;94.10;;;;;;5055279;28;20420;-69